sensor_id;sensor_type;location;lat;lon;timestamp;pressure;altitude;pressure_sealevel;temperature;humidity
29331;BME280;16331;52.528;13.342;2022-12-11T00:02:22;155696.34;;;-0.16;100.00
29331;BME280;16331;52.528;13.342;2022-12-11T00:04:48;155682.78;;;-0.21;100.00
29331;BME280;16331;52.528;13.342;2022-12-11T00:07:16;155693.66;;;-0.17;100.00
29331;BME280;16331;52.528;13.342;2022-12-11T00:09:42;155704.50;;;-0.13;100.00
29331;BME280;16331;52.528;13.342;2022-12-11T00:12:09;155682.78;;;-0.21;100.00
29331;BME280;16331;52.528;13.342;2022-12-11T00:14:35;155695.03;;;-0.16;100.00
29331;BME280;16331;52.528;13.342;2022-12-11T00:17:01;155709.94;;;-0.11;100.00
29331;BME280;16331;52.528;13.342;2022-12-11T00:19:27;155688.22;;;-0.19;100.00
29331;BME280;16331;52.528;13.342;2022-12-11T00:21:55;155697.72;;;-0.15;100.00
29331;BME280;16331;52.528;13.342;2022-12-11T00:24:21;155718.09;;;-0.08;100.00
29331;BME280;16331;52.528;13.342;2022-12-11T00:26:47;155703.19;;;-0.13;100.00
29331;BME280;16331;52.528;13.342;2022-12-11T00:29:14;155737.13;;;-0.01;100.00
29331;BME280;16331;52.528;13.342;2022-12-11T00:31:41;155695.03;;;-0.16;100.00
29331;BME280;16331;52.528;13.342;2022-12-11T00:34:28;155719.47;;;-0.07;100.00
29331;BME280;16331;52.528;13.342;2022-12-11T00:36:55;155753.41;;;0.06;100.00
29331;BME280;16331;52.528;13.342;2022-12-11T00:42:23;155737.13;;;-0.01;100.00
29331;BME280;16331;52.528;13.342;2022-12-11T00:44:49;155715.38;;;-0.09;100.00
29331;BME280;16331;52.528;13.342;2022-12-11T00:47:15;155707.25;;;-0.12;100.00
29331;BME280;16331;52.528;13.342;2022-12-11T00:49:43;155703.19;;;-0.13;100.00
29331;BME280;16331;52.528;13.342;2022-12-11T00:52:09;155704.50;;;-0.13;100.00
29331;BME280;16331;52.528;13.342;2022-12-11T00:54:36;155627.13;;;-0.41;100.00
29331;BME280;16331;52.528;13.342;2022-12-11T00:57:02;155686.84;;;-0.19;100.00
29331;BME280;16331;52.528;13.342;2022-12-11T00:59:28;155674.63;;;-0.24;100.00
29331;BME280;16331;52.528;13.342;2022-12-11T01:01:54;155709.94;;;-0.11;100.00
29331;BME280;16331;52.528;13.342;2022-12-11T01:04:20;155712.63;;;-0.10;100.00
29331;BME280;16331;52.528;13.342;2022-12-11T01:06:48;155720.84;;;-0.07;100.00
29331;BME280;16331;52.528;13.342;2022-12-11T01:09:14;155692.28;;;-0.17;100.00
29331;BME280;16331;52.528;13.342;2022-12-11T01:11:59;155699.09;;;-0.15;100.00
29331;BME280;16331;52.528;13.342;2022-12-11T01:14:26;155704.50;;;-0.13;100.00
29331;BME280;16331;52.528;13.342;2022-12-11T01:16:52;155708.56;;;-0.11;100.00
29331;BME280;16331;52.528;13.342;2022-12-11T01:19:18;155669.19;;;-0.26;100.00
29331;BME280;16331;52.528;13.342;2022-12-11T01:21:44;155708.56;;;-0.11;100.00
29331;BME280;16331;52.528;13.342;2022-12-11T01:24:11;155692.28;;;-0.17;100.00
29331;BME280;16331;52.528;13.342;2022-12-11T01:26:37;155697.72;;;-0.15;100.00
29331;BME280;16331;52.528;13.342;2022-12-11T01:29:03;155727.59;;;-0.04;100.00
29331;BME280;16331;52.528;13.342;2022-12-11T01:31:29;155704.50;;;-0.13;100.00
29331;BME280;16331;52.528;13.342;2022-12-11T01:33:55;155697.72;;;-0.15;100.00
29331;BME280;16331;52.528;13.342;2022-12-11T01:36:23;155704.50;;;-0.13;100.00
29331;BME280;16331;52.528;13.342;2022-12-11T01:38:50;155704.50;;;-0.13;100.00
29331;BME280;16331;52.528;13.342;2022-12-11T01:41:17;155693.66;;;-0.17;100.00
29331;BME280;16331;52.528;13.342;2022-12-11T01:43:58;155659.72;;;-0.29;100.00
29331;BME280;16331;52.528;13.342;2022-12-11T01:46:25;155723.53;;;-0.06;100.00
29331;BME280;16331;52.528;13.342;2022-12-11T01:48:52;155746.63;;;0.03;100.00
29331;BME280;16331;52.528;13.342;2022-12-11T01:51:20;155714.00;;;-0.09;100.00
29331;BME280;16331;52.528;13.342;2022-12-11T01:53:52;155723.53;;;-0.06;100.00
29331;BME280;16331;52.528;13.342;2022-12-11T01:56:20;155673.31;;;-0.24;100.00
29331;BME280;16331;52.528;13.342;2022-12-11T01:58:54;155700.44;;;-0.14;100.00
29331;BME280;16331;52.528;13.342;2022-12-11T02:01:45;155667.88;;;-0.26;100.00
29331;BME280;16331;52.528;13.342;2022-12-11T02:04:13;155715.38;;;-0.09;100.00
29331;BME280;16331;52.528;13.342;2022-12-11T02:06:43;155733.03;;;-0.02;100.00
29331;BME280;16331;52.528;13.342;2022-12-11T02:09:16;155696.34;;;-0.16;100.00
29331;BME280;16331;52.528;13.342;2022-12-11T02:12:06;155642.06;;;-0.36;100.00
29331;BME280;16331;52.528;13.342;2022-12-11T02:14:58;155690.91;;;-0.18;100.00
29331;BME280;16331;52.528;13.342;2022-12-11T02:17:50;155663.81;;;-0.28;100.00
29331;BME280;16331;52.528;13.342;2022-12-11T02:20:45;155738.50;;;0.00;100.00
29331;BME280;16331;52.528;13.342;2022-12-11T02:23:31;155764.28;;;0.10;100.00
29331;BME280;16331;52.528;13.342;2022-12-11T02:26:13;155787.34;;;0.18;100.00
29331;BME280;16331;52.528;13.342;2022-12-11T02:29:00;155772.44;;;0.13;100.00
29331;BME280;16331;52.528;13.342;2022-12-11T02:34:09;155734.38;;;-0.02;100.00
29331;BME280;16331;52.528;13.342;2022-12-11T02:36:40;155733.03;;;-0.02;100.00
29331;BME280;16331;52.528;13.342;2022-12-11T02:39:10;155768.38;;;0.11;100.00
29331;BME280;16331;52.528;13.342;2022-12-11T02:41:45;155754.78;;;0.06;100.00
29331;BME280;16331;52.528;13.342;2022-12-11T02:44:15;155746.63;;;0.03;100.00
29331;BME280;16331;52.528;13.342;2022-12-11T02:46:43;155724.91;;;-0.05;100.00
29331;BME280;16331;52.528;13.342;2022-12-11T02:49:12;155745.25;;;0.03;100.00
29331;BME280;16331;52.528;13.342;2022-12-11T02:51:41;155665.13;;;-0.27;100.00
29331;BME280;16331;52.528;13.342;2022-12-11T02:54:25;155652.91;;;-0.32;100.00
29331;BME280;16331;52.528;13.342;2022-12-11T02:56:59;155718.09;;;-0.08;100.00
29331;BME280;16331;52.528;13.342;2022-12-11T02:59:35;155709.94;;;-0.11;100.00
29331;BME280;16331;52.528;13.342;2022-12-11T03:02:02;155718.09;;;-0.08;100.00
29331;BME280;16331;52.528;13.342;2022-12-11T03:04:29;155742.56;;;0.02;100.00
29331;BME280;16331;52.528;13.342;2022-12-11T03:06:57;155757.47;;;0.07;100.00
29331;BME280;16331;52.528;13.342;2022-12-11T03:09:27;155771.06;;;0.12;100.00
29331;BME280;16331;52.528;13.342;2022-12-11T03:11:53;155757.47;;;0.07;100.00
29331;BME280;16331;52.528;13.342;2022-12-11T03:14:20;155764.28;;;0.10;100.00
29331;BME280;16331;52.528;13.342;2022-12-11T03:19:38;155731.66;;;-0.03;100.00
29331;BME280;16331;52.528;13.342;2022-12-11T03:22:11;155743.88;;;0.02;100.00
29331;BME280;16331;52.528;13.342;2022-12-11T03:24:45;155735.75;;;-0.01;100.00
29331;BME280;16331;52.528;13.342;2022-12-11T03:30:15;155726.22;;;-0.05;100.00
29331;BME280;16331;52.528;13.342;2022-12-11T03:35:41;155696.34;;;-0.16;100.00
29331;BME280;16331;52.528;13.342;2022-12-11T03:38:20;155684.16;;;-0.20;100.00
29331;BME280;16331;52.528;13.342;2022-12-11T03:40:52;155700.44;;;-0.14;100.00
29331;BME280;16331;52.528;13.342;2022-12-11T03:43:20;155728.97;;;-0.04;100.00
29331;BME280;16331;52.528;13.342;2022-12-11T03:45:50;155739.81;;;0.00;100.00
29331;BME280;16331;52.528;13.342;2022-12-11T03:48:18;155709.94;;;-0.11;100.00
29331;BME280;16331;52.528;13.342;2022-12-11T03:50:47;155690.91;;;-0.18;100.00
29331;BME280;16331;52.528;13.342;2022-12-11T03:53:14;155734.38;;;-0.02;100.00
29331;BME280;16331;52.528;13.342;2022-12-11T03:55:41;155731.66;;;-0.03;100.00
29331;BME280;16331;52.528;13.342;2022-12-11T03:58:08;155737.13;;;-0.01;100.00
29331;BME280;16331;52.528;13.342;2022-12-11T04:00:34;155699.09;;;-0.15;100.00
29331;BME280;16331;52.528;13.342;2022-12-11T04:03:01;155708.56;;;-0.11;100.00
29331;BME280;16331;52.528;13.342;2022-12-11T04:05:44;155708.56;;;-0.11;100.00
29331;BME280;16331;52.528;13.342;2022-12-11T04:08:11;155709.94;;;-0.11;100.00
29331;BME280;16331;52.528;13.342;2022-12-11T04:10:38;155709.94;;;-0.11;100.00
29331;BME280;16331;52.528;13.342;2022-12-11T04:13:04;155737.13;;;-0.01;100.00
29331;BME280;16331;52.528;13.342;2022-12-11T04:15:31;155720.84;;;-0.07;100.00
29331;BME280;16331;52.528;13.342;2022-12-11T04:17:57;155720.84;;;-0.07;100.00
29331;BME280;16331;52.528;13.342;2022-12-11T04:20:42;155676.00;;;-0.23;100.00
29331;BME280;16331;52.528;13.342;2022-12-11T04:23:27;155686.84;;;-0.19;100.00
29331;BME280;16331;52.528;13.342;2022-12-11T04:26:15;155656.97;;;-0.30;100.00
29331;BME280;16331;52.528;13.342;2022-12-11T04:28:42;155656.97;;;-0.30;100.00
29331;BME280;16331;52.528;13.342;2022-12-11T04:31:14;155656.97;;;-0.30;100.00
29331;BME280;16331;52.528;13.342;2022-12-11T04:33:40;155669.19;;;-0.26;100.00
29331;BME280;16331;52.528;13.342;2022-12-11T04:36:07;155635.25;;;-0.38;100.00
29331;BME280;16331;52.528;13.342;2022-12-11T04:38:34;155669.19;;;-0.26;100.00
29331;BME280;16331;52.528;13.342;2022-12-11T04:41:18;155659.72;;;-0.29;100.00
29331;BME280;16331;52.528;13.342;2022-12-11T04:43:45;155659.72;;;-0.29;100.00
29331;BME280;16331;52.528;13.342;2022-12-11T04:46:16;155681.44;;;-0.21;100.00
29331;BME280;16331;52.528;13.342;2022-12-11T04:48:43;155690.91;;;-0.18;100.00
29331;BME280;16331;52.528;13.342;2022-12-11T04:51:10;155685.53;;;-0.20;100.00
29331;BME280;16331;52.528;13.342;2022-12-11T04:53:37;155661.03;;;-0.29;100.00
29331;BME280;16331;52.528;13.342;2022-12-11T04:56:10;155663.81;;;-0.28;100.00
29331;BME280;16331;52.528;13.342;2022-12-11T04:58:39;155666.50;;;-0.27;100.00
29331;BME280;16331;52.528;13.342;2022-12-11T05:01:15;155690.91;;;-0.18;100.00
29331;BME280;16331;52.528;13.342;2022-12-11T05:03:44;155707.25;;;-0.12;100.00
29331;BME280;16331;52.528;13.342;2022-12-11T05:06:10;155707.25;;;-0.12;100.00
29331;BME280;16331;52.528;13.342;2022-12-11T05:08:39;155716.75;;;-0.08;100.00
29331;BME280;16331;52.528;13.342;2022-12-11T05:11:08;155696.34;;;-0.16;100.00
29331;BME280;16331;52.528;13.342;2022-12-11T05:13:35;155695.03;;;-0.16;100.00
29331;BME280;16331;52.528;13.342;2022-12-11T05:16:04;155715.38;;;-0.09;100.00
29331;BME280;16331;52.528;13.342;2022-12-11T05:18:31;155727.59;;;-0.04;100.00
29331;BME280;16331;52.528;13.342;2022-12-11T05:20:59;155704.50;;;-0.13;100.00
29331;BME280;16331;52.528;13.342;2022-12-11T05:23:25;155704.50;;;-0.13;100.00
29331;BME280;16331;52.528;13.342;2022-12-11T05:25:56;155712.63;;;-0.10;100.00
29331;BME280;16331;52.528;13.342;2022-12-11T05:28:23;155711.31;;;-0.10;100.00
29331;BME280;16331;52.528;13.342;2022-12-11T05:30:55;155670.56;;;-0.25;100.00
29331;BME280;16331;52.528;13.342;2022-12-11T05:33:21;155652.91;;;-0.32;100.00
29331;BME280;16331;52.528;13.342;2022-12-11T05:35:48;155669.19;;;-0.26;100.00
29331;BME280;16331;52.528;13.342;2022-12-11T05:38:14;155704.50;;;-0.13;100.00
29331;BME280;16331;52.528;13.342;2022-12-11T05:40:41;155677.38;;;-0.23;100.00
29331;BME280;16331;52.528;13.342;2022-12-11T05:43:07;155689.59;;;-0.18;100.00
29331;BME280;16331;52.528;13.342;2022-12-11T05:45:33;155681.44;;;-0.21;100.00
29331;BME280;16331;52.528;13.342;2022-12-11T05:48:00;155704.50;;;-0.13;100.00
29331;BME280;16331;52.528;13.342;2022-12-11T05:50:26;155666.50;;;-0.27;100.00
29331;BME280;16331;52.528;13.342;2022-12-11T05:52:52;155650.22;;;-0.33;100.00
29331;BME280;16331;52.528;13.342;2022-12-11T05:55:18;155661.03;;;-0.29;100.00
29331;BME280;16331;52.528;13.342;2022-12-11T05:57:44;155677.38;;;-0.23;100.00
29331;BME280;16331;52.528;13.342;2022-12-11T06:00:13;155689.59;;;-0.18;100.00
29331;BME280;16331;52.528;13.342;2022-12-11T06:02:39;155659.72;;;-0.29;100.00
29331;BME280;16331;52.528;13.342;2022-12-11T06:05:05;155682.78;;;-0.21;100.00
29331;BME280;16331;52.528;13.342;2022-12-11T06:07:31;155663.81;;;-0.28;100.00
29331;BME280;16331;52.528;13.342;2022-12-11T06:09:59;155625.78;;;-0.42;100.00
29331;BME280;16331;52.528;13.342;2022-12-11T06:12:25;155631.19;;;-0.40;100.00
29331;BME280;16331;52.528;13.342;2022-12-11T06:14:52;155628.50;;;-0.41;100.00
29331;BME280;16331;52.528;13.342;2022-12-11T06:17:18;155621.69;;;-0.43;100.00
29331;BME280;16331;52.528;13.342;2022-12-11T06:19:44;155612.22;;;-0.47;100.00
29331;BME280;16331;52.528;13.342;2022-12-11T06:22:10;155591.81;;;-0.54;100.00
29331;BME280;16331;52.528;13.342;2022-12-11T06:24:36;155601.34;;;-0.51;100.00
29331;BME280;16331;52.528;13.342;2022-12-11T06:27:02;155587.75;;;-0.56;100.00
29331;BME280;16331;52.528;13.342;2022-12-11T06:29:28;155574.16;;;-0.61;100.00
29331;BME280;16331;52.528;13.342;2022-12-11T06:31:54;155591.81;;;-0.54;100.00
29331;BME280;16331;52.528;13.342;2022-12-11T06:34:20;155614.91;;;-0.46;100.00
29331;BME280;16331;52.528;13.342;2022-12-11T06:36:49;155601.34;;;-0.51;100.00
29331;BME280;16331;52.528;13.342;2022-12-11T06:39:16;155563.34;;;-0.65;100.00
29331;BME280;16331;52.528;13.342;2022-12-11T06:41:42;155559.28;;;-0.66;100.00
29331;BME280;16331;52.528;13.342;2022-12-11T06:44:10;155547.06;;;-0.71;100.00
29331;BME280;16331;52.528;13.342;2022-12-11T06:46:36;155551.13;;;-0.69;100.00
29331;BME280;16331;52.528;13.342;2022-12-11T06:49:03;155560.66;;;-0.66;100.00
29331;BME280;16331;52.528;13.342;2022-12-11T06:51:34;155537.56;;;-0.74;100.00
29331;BME280;16331;52.528;13.342;2022-12-11T06:54:00;155563.34;;;-0.65;100.00
29331;BME280;16331;52.528;13.342;2022-12-11T06:56:26;155590.50;;;-0.55;100.00
29331;BME280;16331;52.528;13.342;2022-12-11T06:58:52;155574.16;;;-0.61;100.00
29331;BME280;16331;52.528;13.342;2022-12-11T07:01:20;155581.00;;;-0.58;100.00
29331;BME280;16331;52.528;13.342;2022-12-11T07:03:47;155593.19;;;-0.54;100.00
29331;BME280;16331;52.528;13.342;2022-12-11T07:06:13;155579.63;;;-0.59;100.00
29331;BME280;16331;52.528;13.342;2022-12-11T07:08:40;155620.34;;;-0.44;100.00
29331;BME280;16331;52.528;13.342;2022-12-11T07:11:10;155616.28;;;-0.45;100.00
29331;BME280;16331;52.528;13.342;2022-12-11T07:13:37;155585.06;;;-0.57;100.00
29331;BME280;16331;52.528;13.342;2022-12-11T07:16:04;155579.63;;;-0.59;100.00
29331;BME280;16331;52.528;13.342;2022-12-11T07:18:39;155538.94;;;-0.74;100.00
29331;BME280;16331;52.528;13.342;2022-12-11T07:21:07;155495.50;;;-0.90;100.00
29331;BME280;16331;52.528;13.342;2022-12-11T07:23:37;155514.47;;;-0.83;100.00
29331;BME280;16331;52.528;13.342;2022-12-11T07:26:12;155517.22;;;-0.82;100.00
29331;BME280;16331;52.528;13.342;2022-12-11T07:28:39;155506.34;;;-0.86;100.00
29331;BME280;16331;52.528;13.342;2022-12-11T07:31:06;155514.47;;;-0.83;100.00
29331;BME280;16331;52.528;13.342;2022-12-11T07:33:33;155499.59;;;-0.88;100.00
29331;BME280;16331;52.528;13.342;2022-12-11T07:36:01;155465.66;;;-1.01;100.00
29331;BME280;16331;52.528;13.342;2022-12-11T07:38:28;155498.22;;;-0.89;100.00
29331;BME280;16331;52.528;13.342;2022-12-11T07:40:54;155526.69;;;-0.78;100.00
29331;BME280;16331;52.528;13.342;2022-12-11T07:43:22;155522.59;;;-0.80;100.00
29331;BME280;16331;52.528;13.342;2022-12-11T07:45:48;155543.00;;;-0.72;100.00
29331;BME280;16331;52.528;13.342;2022-12-11T07:48:15;155544.31;;;-0.72;100.00
29331;BME280;16331;52.528;13.342;2022-12-11T07:50:41;155564.72;;;-0.64;100.00
29331;BME280;16331;52.528;13.342;2022-12-11T07:53:07;155541.63;;;-0.73;100.00
29331;BME280;16331;52.528;13.342;2022-12-11T07:55:33;155525.34;;;-0.79;100.00
29331;BME280;16331;52.528;13.342;2022-12-11T07:57:59;155544.31;;;-0.72;100.00
29331;BME280;16331;52.528;13.342;2022-12-11T08:00:34;155560.66;;;-0.66;100.00
29331;BME280;16331;52.528;13.342;2022-12-11T08:03:15;155530.75;;;-0.77;100.00
29331;BME280;16331;52.528;13.342;2022-12-11T08:05:49;155525.34;;;-0.79;100.00
29331;BME280;16331;52.528;13.342;2022-12-11T08:08:19;155557.91;;;-0.67;100.00
29331;BME280;16331;52.528;13.342;2022-12-11T08:10:46;155590.50;;;-0.55;100.00
29331;BME280;16331;52.528;13.342;2022-12-11T08:13:12;155587.75;;;-0.56;100.00
29331;BME280;16331;52.528;13.342;2022-12-11T08:15:39;155555.22;;;-0.68;100.00
29331;BME280;16331;52.528;13.342;2022-12-11T08:18:06;155509.03;;;-0.85;100.00
29331;BME280;16331;52.528;13.342;2022-12-11T08:20:33;155568.78;;;-0.63;100.00
29331;BME280;16331;52.528;13.342;2022-12-11T08:22:59;155602.72;;;-0.50;100.00
29331;BME280;16331;52.528;13.342;2022-12-11T08:25:25;155627.13;;;-0.41;100.00
29331;BME280;16331;52.528;13.342;2022-12-11T08:27:51;155570.09;;;-0.62;100.00
29331;BME280;16331;52.528;13.342;2022-12-11T08:30:17;155614.91;;;-0.46;100.00
29331;BME280;16331;52.528;13.342;2022-12-11T08:32:43;155598.63;;;-0.52;100.00
29331;BME280;16331;52.528;13.342;2022-12-11T08:35:10;155614.91;;;-0.46;100.00
29331;BME280;16331;52.528;13.342;2022-12-11T08:37:37;155599.97;;;-0.51;100.00
29331;BME280;16331;52.528;13.342;2022-12-11T08:40:04;155643.41;;;-0.35;100.00
29331;BME280;16331;52.528;13.342;2022-12-11T08:42:30;155659.72;;;-0.29;100.00
29331;BME280;16331;52.528;13.342;2022-12-11T08:44:56;155598.63;;;-0.52;100.00
29331;BME280;16331;52.528;13.342;2022-12-11T08:47:23;155652.91;;;-0.32;100.00
29331;BME280;16331;52.528;13.342;2022-12-11T08:49:49;155678.72;;;-0.22;100.00
29331;BME280;16331;52.528;13.342;2022-12-11T08:52:15;155620.34;;;-0.44;100.00
29331;BME280;16331;52.528;13.342;2022-12-11T08:54:41;155654.28;;;-0.31;100.00
29331;BME280;16331;52.528;13.342;2022-12-11T08:57:07;155680.06;;;-0.22;100.00
29331;BME280;16331;52.528;13.342;2022-12-11T08:59:34;155662.44;;;-0.28;100.00
29331;BME280;16331;52.528;13.342;2022-12-11T09:02:00;155676.00;;;-0.23;100.00
29331;BME280;16331;52.528;13.342;2022-12-11T09:04:27;155692.28;;;-0.17;100.00
29331;BME280;16331;52.528;13.342;2022-12-11T09:06:53;155659.72;;;-0.29;100.00
29331;BME280;16331;52.528;13.342;2022-12-11T09:09:20;155663.81;;;-0.28;100.00
29331;BME280;16331;52.528;13.342;2022-12-11T09:11:46;155633.94;;;-0.39;100.00
29331;BME280;16331;52.528;13.342;2022-12-11T09:14:12;155696.34;;;-0.16;100.00
29331;BME280;16331;52.528;13.342;2022-12-11T09:16:39;155745.25;;;0.03;100.00
29331;BME280;16331;52.528;13.342;2022-12-11T09:19:07;155670.56;;;-0.25;100.00
29331;BME280;16331;52.528;13.342;2022-12-11T09:21:34;155666.50;;;-0.27;100.00
29331;BME280;16331;52.528;13.342;2022-12-11T09:24:00;155617.59;;;-0.45;100.00
29331;BME280;16331;52.528;13.342;2022-12-11T09:26:29;155646.16;;;-0.34;100.00
29331;BME280;16331;52.528;13.342;2022-12-11T09:28:57;155656.97;;;-0.30;100.00
29331;BME280;16331;52.528;13.342;2022-12-11T09:31:32;155631.19;;;-0.40;100.00
29331;BME280;16331;52.528;13.342;2022-12-11T09:34:01;155642.06;;;-0.36;100.00
29331;BME280;16331;52.528;13.342;2022-12-11T09:36:28;155728.97;;;-0.04;100.00
29331;BME280;16331;52.528;13.342;2022-12-11T09:38:58;155723.53;;;-0.06;100.00
29331;BME280;16331;52.528;13.342;2022-12-11T09:41:39;155674.63;;;-0.24;100.00
29331;BME280;16331;52.528;13.342;2022-12-11T09:44:30;155719.47;;;-0.07;100.00
29331;BME280;16331;52.528;13.342;2022-12-11T09:46:58;155726.22;;;-0.05;100.00
29331;BME280;16331;52.528;13.342;2022-12-11T09:49:39;155708.56;;;-0.11;100.00
29331;BME280;16331;52.528;13.342;2022-12-11T09:54:53;155624.44;;;-0.42;100.00
29331;BME280;16331;52.528;13.342;2022-12-11T10:00:23;155686.84;;;-0.19;100.00
29331;BME280;16331;52.528;13.342;2022-12-11T10:05:54;155723.53;;;-0.06;100.00
29331;BME280;16331;52.528;13.342;2022-12-11T10:11:39;155685.53;;;-0.20;100.00
29331;BME280;16331;52.528;13.342;2022-12-11T10:14:38;155648.84;;;-0.33;100.00
29331;BME280;16331;52.528;13.342;2022-12-11T10:17:10;155682.78;;;-0.21;100.00
29331;BME280;16331;52.528;13.342;2022-12-11T10:19:38;155700.44;;;-0.14;100.00
29331;BME280;16331;52.528;13.342;2022-12-11T10:22:17;155714.00;;;-0.09;100.00
29331;BME280;16331;52.528;13.342;2022-12-11T10:27:27;155656.97;;;-0.30;100.00
29331;BME280;16331;52.528;13.342;2022-12-11T10:30:21;155651.59;;;-0.32;100.00
29331;BME280;16331;52.528;13.342;2022-12-11T10:35:52;155625.78;;;-0.42;100.00
29331;BME280;16331;52.528;13.342;2022-12-11T10:38:30;155644.78;;;-0.35;100.00
29331;BME280;16331;52.528;13.342;2022-12-11T10:40:58;155677.38;;;-0.23;100.00
29331;BME280;16331;52.528;13.342;2022-12-11T10:43:40;155695.03;;;-0.16;100.00
29331;BME280;16331;52.528;13.342;2022-12-11T10:46:21;155731.66;;;-0.03;100.00
29331;BME280;16331;52.528;13.342;2022-12-11T10:48:55;155731.66;;;-0.03;100.00
29331;BME280;16331;52.528;13.342;2022-12-11T10:56:34;155787.34;;;0.18;100.00
29331;BME280;16331;52.528;13.342;2022-12-11T10:59:01;155719.47;;;-0.07;100.00
29331;BME280;16331;52.528;13.342;2022-12-11T11:01:30;155796.88;;;0.22;100.00
29331;BME280;16331;52.528;13.342;2022-12-11T11:04:06;155768.38;;;0.11;100.00
29331;BME280;16331;52.528;13.342;2022-12-11T11:06:39;155777.81;;;0.15;100.00
29331;BME280;16331;52.528;13.342;2022-12-11T11:09:43;155756.09;;;0.07;100.00
29331;BME280;16331;52.528;13.342;2022-12-11T11:12:24;155750.72;;;0.05;100.00
29331;BME280;16331;52.528;13.342;2022-12-11T11:15:03;155761.53;;;0.09;100.00
29331;BME280;16331;52.528;13.342;2022-12-11T11:17:31;155791.41;;;0.20;100.00
29331;BME280;16331;52.528;13.342;2022-12-11T11:20:11;155853.94;;;0.43;100.00
29331;BME280;16331;52.528;13.342;2022-12-11T11:22:50;155814.53;;;0.28;100.00
29331;BME280;16331;52.528;13.342;2022-12-11T11:25:22;155851.19;;;0.42;100.00
29331;BME280;16331;52.528;13.342;2022-12-11T11:30:26;155768.38;;;0.11;100.00
29331;BME280;16331;52.528;13.342;2022-12-11T11:32:57;155798.25;;;0.22;100.00
29331;BME280;16331;52.528;13.342;2022-12-11T11:35:29;155798.25;;;0.22;100.00
29331;BME280;16331;52.528;13.342;2022-12-11T11:49:25;155832.19;;;0.35;100.00
29331;BME280;16331;52.528;13.342;2022-12-11T11:52:17;155807.75;;;0.26;100.00
29331;BME280;16331;52.528;13.342;2022-12-11T11:58:19;155813.16;;;0.28;100.00
29331;BME280;16331;52.528;13.342;2022-12-11T12:01:17;155879.75;;;0.52;100.00
29331;BME280;16331;52.528;13.342;2022-12-11T12:03:45;155879.75;;;0.52;100.00
29331;BME280;16331;52.528;13.342;2022-12-11T12:06:43;155845.78;;;0.40;100.00
29331;BME280;16331;52.528;13.342;2022-12-11T12:09:45;155848.47;;;0.41;100.00
29331;BME280;16331;52.528;13.342;2022-12-11T12:15:12;155858.00;;;0.44;100.00
29331;BME280;16331;52.528;13.342;2022-12-11T12:17:54;155921.84;;;0.68;100.00
29331;BME280;16331;52.528;13.342;2022-12-11T12:20:43;155879.75;;;0.52;100.00
29331;BME280;16331;52.528;13.342;2022-12-11T12:23:17;155905.56;;;0.62;100.00
29331;BME280;16331;52.528;13.342;2022-12-11T12:32:08;155867.53;;;0.48;100.00
29331;BME280;16331;52.528;13.342;2022-12-11T12:34:59;155976.25;;;0.88;100.00
29331;BME280;16331;52.528;13.342;2022-12-11T12:40:29;156031.97;;;1.08;100.00
29331;BME280;16331;52.528;13.342;2022-12-11T12:44:03;155940.91;;;0.75;100.00
29331;BME280;16331;52.528;13.342;2022-12-11T12:46:45;155966.72;;;0.84;100.00
29331;BME280;16331;52.528;13.342;2022-12-11T12:49:40;156044.19;;;1.13;100.00
29331;BME280;16331;52.528;13.342;2022-12-11T12:54:50;156029.22;;;1.07;100.00
29331;BME280;16331;52.528;13.342;2022-12-11T12:57:37;156101.31;;;1.34;100.00
29331;BME280;16331;52.528;13.342;2022-12-11T13:00:08;156061.88;;;1.19;100.00
29331;BME280;16331;52.528;13.342;2022-12-11T13:02:53;156014.28;;;1.02;100.00
29331;BME280;16331;52.528;13.342;2022-12-11T13:05:27;156017.00;;;1.03;100.00
29331;BME280;16331;52.528;13.342;2022-12-11T13:07:58;155946.34;;;0.77;100.00
29331;BME280;16331;52.528;13.342;2022-12-11T13:12:57;155940.91;;;0.75;100.00
29331;BME280;16331;52.528;13.342;2022-12-11T13:15:34;155917.78;;;0.66;100.00
29331;BME280;16331;52.528;13.342;2022-12-11T13:18:42;155932.75;;;0.72;100.00
29331;BME280;16331;52.528;13.342;2022-12-11T13:21:35;155924.59;;;0.69;100.00
29331;BME280;16331;52.528;13.342;2022-12-11T13:24:16;155917.78;;;0.66;100.00
29331;BME280;16331;52.528;13.342;2022-12-11T13:26:50;155897.41;;;0.59;100.00
29331;BME280;16331;52.528;13.342;2022-12-11T13:29:35;155930.00;;;0.71;100.00
29331;BME280;16331;52.528;13.342;2022-12-11T13:32:26;155925.94;;;0.69;100.00
29331;BME280;16331;52.528;13.342;2022-12-11T13:34:57;155889.25;;;0.56;100.00
29331;BME280;16331;52.528;13.342;2022-12-11T13:37:42;155878.38;;;0.52;100.00
29331;BME280;16331;52.528;13.342;2022-12-11T13:40:23;155906.94;;;0.62;100.00
29331;BME280;16331;52.528;13.342;2022-12-11T13:42:56;155887.88;;;0.55;100.00
29331;BME280;16331;52.528;13.342;2022-12-11T13:45:38;155935.44;;;0.73;100.00
29331;BME280;16331;52.528;13.342;2022-12-11T13:48:14;155878.38;;;0.52;100.00
29331;BME280;16331;52.528;13.342;2022-12-11T13:50:43;155908.25;;;0.63;100.00
29331;BME280;16331;52.528;13.342;2022-12-11T13:53:18;155893.34;;;0.57;100.00
29331;BME280;16331;52.528;13.342;2022-12-11T13:56:02;155889.25;;;0.56;100.00
29331;BME280;16331;52.528;13.342;2022-12-11T13:58:32;155891.97;;;0.57;100.00
29331;BME280;16331;52.528;13.342;2022-12-11T14:03:59;155908.25;;;0.63;100.00
29331;BME280;16331;52.528;13.342;2022-12-11T14:06:30;155913.72;;;0.65;100.00
29331;BME280;16331;52.528;13.342;2022-12-11T14:09:03;155916.41;;;0.66;100.00
29331;BME280;16331;52.528;13.342;2022-12-11T14:11:37;155919.16;;;0.67;100.00